createdAt,value
2023-02-19T00:00:24.633Z,23.67
2023-02-19T00:02:53.052Z,25.30
2023-02-19T00:05:22.520Z,22.83
2023-02-19T00:07:51.027Z,29.03
2023-02-19T00:10:19.440Z,28.93
2023-02-19T00:12:47.480Z,24.00
2023-02-19T00:15:15.925Z,21.60
2023-02-19T00:17:44.443Z,24.67
2023-02-19T00:20:12.623Z,24.03
2023-02-19T00:22:42.232Z,19.47
2023-02-19T00:25:10.912Z,22.97
2023-02-19T00:27:39.652Z,21.33
2023-02-19T00:30:08.487Z,19.97
2023-02-19T00:32:37.070Z,20.63
2023-02-19T00:35:05.475Z,22.80
2023-02-19T00:37:33.870Z,21.57
2023-02-19T00:40:03.677Z,23.37
2023-02-19T00:42:32.400Z,25.17
2023-02-19T00:45:00.748Z,29.77
2023-02-19T00:47:29.502Z,26.73
2023-02-19T00:49:57.940Z,31.63
2023-02-19T00:52:26.289Z,34.63
2023-02-19T00:54:54.712Z,32.33
2023-02-19T00:57:24.199Z,43.90
2023-02-19T00:59:52.613Z,38.23
2023-02-19T01:02:21.027Z,39.67
2023-02-19T01:04:49.565Z,42.70
2023-02-19T01:07:17.926Z,39.50
2023-02-19T01:09:46.291Z,42.80
2023-02-19T01:12:14.762Z,44.70
2023-02-19T01:14:44.420Z,45.67
2023-02-19T01:17:12.846Z,43.97
2023-02-19T01:19:41.291Z,47.00
2023-02-19T01:22:09.727Z,43.30
2023-02-19T01:24:38.044Z,39.03
2023-02-19T01:27:06.464Z,48.00
2023-02-19T01:29:35.111Z,40.17
2023-02-19T01:32:05.015Z,46.03
2023-02-19T01:34:34.096Z,43.47
2023-02-19T01:37:03.154Z,44.97
2023-02-19T01:39:31.644Z,39.63
2023-02-19T01:42:00.276Z,40.30
2023-02-19T01:45:20.251Z,45.63
2023-02-19T01:47:54.824Z,39.60
2023-02-19T01:50:24.233Z,41.63
2023-02-19T01:52:52.618Z,39.20
2023-02-19T01:55:21.480Z,36.60
2023-02-19T01:57:53.360Z,36.93
2023-02-19T02:00:24.275Z,35.17
2023-02-19T02:02:56.083Z,35.40
2023-02-19T02:05:46.733Z,34.50
2023-02-19T02:08:34.245Z,31.00
2023-02-19T02:11:02.926Z,30.40
2023-02-19T02:13:31.496Z,29.83
2023-02-19T02:16:11.597Z,32.13
2023-02-19T02:18:47.997Z,33.53
2023-02-19T02:21:57.643Z,30.87
2023-02-19T02:24:58.633Z,30.60
2023-02-19T02:27:39.933Z,32.70
2023-02-19T02:30:33.491Z,37.83
2023-02-19T02:33:07.020Z,38.17
2023-02-19T02:35:43.809Z,34.87
2023-02-19T02:38:14.225Z,35.90
2023-02-19T02:40:45.874Z,41.90
2023-02-19T02:43:14.343Z,39.90
2023-02-19T02:45:44.436Z,37.83
2023-02-19T02:48:21.787Z,39.17
2023-02-19T02:50:54.921Z,35.53
2023-02-19T02:53:44.279Z,28.93
2023-02-19T02:56:13.442Z,36.50
2023-02-19T02:58:41.880Z,32.07
2023-02-19T03:01:34.250Z,25.50
2023-02-19T03:04:05.652Z,26.87
2023-02-19T03:06:36.381Z,27.77
2023-02-19T03:09:11.528Z,28.43
2023-02-19T03:12:00.780Z,28.27
2023-02-19T03:15:02.357Z,25.90
2023-02-19T03:17:56.194Z,25.60
2023-02-19T03:20:25.792Z,24.40
2023-02-19T03:22:57.000Z,27.03
2023-02-19T03:25:45.959Z,24.57
2023-02-19T03:28:17.610Z,23.63
2023-02-19T03:30:50.263Z,30.93
2023-02-19T03:33:22.148Z,25.67
2023-02-19T03:35:55.670Z,26.83
2023-02-19T03:38:28.373Z,26.00
2023-02-19T03:41:01.234Z,23.87
2023-02-19T03:43:39.960Z,25.60
2023-02-19T03:46:13.324Z,21.50
2023-02-19T03:48:49.470Z,21.37
2023-02-19T03:51:31.728Z,20.83
2023-02-19T03:54:09.976Z,18.33
2023-02-19T03:56:44.359Z,25.30
2023-02-19T03:59:18.849Z,22.87
2023-02-19T04:01:52.474Z,19.57
2023-02-19T04:04:26.623Z,25.73
2023-02-19T04:06:57.169Z,20.77
2023-02-19T04:09:28.819Z,25.10
2023-02-19T04:11:57.501Z,21.30
2023-02-19T04:14:30.760Z,18.73
2023-02-19T04:17:02.217Z,17.00
2023-02-19T04:19:34.634Z,12.93
2023-02-19T04:22:04.303Z,13.60
2023-02-19T04:24:37.865Z,13.27
2023-02-19T04:27:07.736Z,12.80
2023-02-19T04:29:38.850Z,13.43
2023-02-19T04:32:07.655Z,13.40
2023-02-19T04:34:37.143Z,15.13
2023-02-19T04:37:05.717Z,14.57
2023-02-19T04:39:34.502Z,15.20
2023-02-19T04:42:02.963Z,15.07
2023-02-19T04:44:31.400Z,14.93
2023-02-19T04:46:59.991Z,23.07
2023-02-19T04:49:28.449Z,21.57
2023-02-19T04:51:57.924Z,23.27
2023-02-19T04:54:26.319Z,29.43
2023-02-19T04:56:54.723Z,30.63
2023-02-19T04:59:22.826Z,34.80
2023-02-19T05:01:51.173Z,31.37
2023-02-19T05:04:19.547Z,24.10
2023-02-19T05:06:48.077Z,26.97
2023-02-19T05:09:17.776Z,27.67
2023-02-19T05:11:46.089Z,30.47
2023-02-19T05:14:14.471Z,25.30
2023-02-19T05:16:42.821Z,28.47
2023-02-19T05:19:12.600Z,25.27
2023-02-19T05:21:41.395Z,25.93
2023-02-19T05:24:09.857Z,33.67
2023-02-19T05:26:39.280Z,23.87
2023-02-19T05:29:07.614Z,22.37
2023-02-19T05:31:36.101Z,27.17
2023-02-19T05:34:04.761Z,29.23
2023-02-19T05:36:33.348Z,27.87
2023-02-19T05:39:02.065Z,24.00
2023-02-19T05:41:31.847Z,25.23
2023-02-19T05:44:01.479Z,24.43
2023-02-19T05:46:30.958Z,26.90
2023-02-19T05:48:59.330Z,20.07
2023-02-19T05:51:28.548Z,20.73
2023-02-19T05:53:58.456Z,22.03
2023-02-19T05:56:31.861Z,22.30
2023-02-19T05:59:04.565Z,19.43
2023-02-19T06:01:33.029Z,22.20
2023-02-19T06:04:01.526Z,24.23
2023-02-19T06:06:29.961Z,21.00
2023-02-19T06:08:58.351Z,22.50
2023-02-19T06:11:27.058Z,28.77
2023-02-19T06:13:55.416Z,23.27
2023-02-19T06:16:24.965Z,23.50
2023-02-19T06:18:53.383Z,18.57
2023-02-19T06:21:22.054Z,23.53
2023-02-19T06:23:50.390Z,21.00
2023-02-19T06:26:20.668Z,19.43
2023-02-19T06:28:50.481Z,19.23
2023-02-19T06:31:19.475Z,25.17
2023-02-19T06:33:50.659Z,17.40
2023-02-19T06:36:20.844Z,19.23
2023-02-19T06:38:49.254Z,20.87
2023-02-19T06:41:17.792Z,19.37
2023-02-19T06:43:46.631Z,17.77
2023-02-19T06:46:15.439Z,19.73
2023-02-19T06:48:45.699Z,17.13
2023-02-19T06:51:18.696Z,18.97
2023-02-19T06:53:47.370Z,21.23
2023-02-19T06:56:27.155Z,20.10
2023-02-19T06:58:56.825Z,15.27
2023-02-19T07:01:25.549Z,15.57
2023-02-19T07:03:54.352Z,22.67
2023-02-19T07:06:25.641Z,17.67
2023-02-19T07:08:55.402Z,20.47
2023-02-19T07:11:24.002Z,17.13
2023-02-19T07:13:56.637Z,20.30
2023-02-19T07:16:25.179Z,21.63
2023-02-19T07:18:53.633Z,22.40
2023-02-19T07:21:22.041Z,22.17
2023-02-19T07:23:51.536Z,24.03
2023-02-19T07:26:21.012Z,29.70
2023-02-19T07:28:51.051Z,24.00
2023-02-19T07:31:21.643Z,18.60
2023-02-19T07:33:50.267Z,23.53
2023-02-19T07:36:20.553Z,25.93
2023-02-19T07:38:49.154Z,22.73
2023-02-19T07:41:18.958Z,20.03
2023-02-19T07:43:47.347Z,25.33
2023-02-19T07:46:15.807Z,22.23
2023-02-19T07:48:45.446Z,20.07
2023-02-19T07:51:16.498Z,24.17
2023-02-19T07:53:44.718Z,21.90
2023-02-19T07:56:13.924Z,17.43
2023-02-19T07:58:43.879Z,19.17
2023-02-19T08:01:16.488Z,16.00
2023-02-19T08:03:44.733Z,20.17
2023-02-19T08:06:13.844Z,15.60
2023-02-19T08:08:42.152Z,13.40
2023-02-19T08:11:29.055Z,13.40
2023-02-19T08:13:58.495Z,14.33
2023-02-19T08:16:41.955Z,15.40
2023-02-19T08:19:11.188Z,11.93
2023-02-19T08:21:39.569Z,12.70
2023-02-19T08:24:08.007Z,13.40
2023-02-19T08:26:36.337Z,11.53
2023-02-19T08:29:06.181Z,12.50
2023-02-19T08:31:35.741Z,11.67
2023-02-19T08:34:04.429Z,12.50
2023-02-19T08:36:32.709Z,13.90
2023-02-19T08:39:00.895Z,14.13
2023-02-19T08:41:29.303Z,15.97
2023-02-19T08:43:57.744Z,15.73
2023-02-19T08:46:27.200Z,18.77
2023-02-19T08:48:55.619Z,16.93
2023-02-19T08:51:23.978Z,19.70
2023-02-19T08:53:52.413Z,17.10
2023-02-19T08:56:21.032Z,18.13
2023-02-19T08:58:49.448Z,17.00
2023-02-19T09:01:19.373Z,15.00
2023-02-19T09:03:48.989Z,14.53
2023-02-19T09:06:19.013Z,12.43
2023-02-19T09:08:47.543Z,12.80
2023-02-19T09:11:15.928Z,14.07
2023-02-19T09:13:44.550Z,14.60
2023-02-19T09:16:13.068Z,12.53
2023-02-19T09:18:41.726Z,14.13
2023-02-19T09:21:11.502Z,13.47
2023-02-19T09:23:40.435Z,13.67
2023-02-19T09:26:10.198Z,14.17
2023-02-19T09:28:41.652Z,13.27
2023-02-19T09:31:12.893Z,9.17
2023-02-19T09:33:43.886Z,9.50
2023-02-19T09:36:14.196Z,7.40
2023-02-19T09:38:42.801Z,7.47
2023-02-19T09:41:17.499Z,7.80
2023-02-19T09:43:45.851Z,7.60
2023-02-19T09:46:26.594Z,6.63
2023-02-19T09:48:56.710Z,7.60
2023-02-19T09:51:28.952Z,9.03
2023-02-19T09:53:58.100Z,18.10
2023-02-19T09:56:27.301Z,10.13
2023-02-19T09:58:58.361Z,9.03
2023-02-19T10:01:30.149Z,7.63
2023-02-19T10:03:58.589Z,7.77
2023-02-19T10:06:29.989Z,6.13
2023-02-19T10:09:10.811Z,6.07
2023-02-19T10:11:39.305Z,6.70
2023-02-19T10:14:10.210Z,6.47
2023-02-19T10:16:43.640Z,7.00
2023-02-19T10:19:12.502Z,7.27
2023-02-19T10:21:43.776Z,6.20
2023-02-19T10:24:15.569Z,6.23
2023-02-19T10:26:44.170Z,5.67
2023-02-19T10:29:12.629Z,6.07
2023-02-19T10:31:41.100Z,6.03
2023-02-19T10:34:19.473Z,5.80
2023-02-19T10:36:51.652Z,8.00
2023-02-19T10:39:42.084Z,6.33
2023-02-19T10:42:17.104Z,5.93
2023-02-19T10:44:48.278Z,5.93
2023-02-19T10:47:22.616Z,6.73
2023-02-19T10:49:52.227Z,8.27
2023-02-19T10:52:26.681Z,6.13
2023-02-19T10:54:58.179Z,5.57
2023-02-19T10:57:33.062Z,6.43
2023-02-19T11:00:14.393Z,6.60
2023-02-19T11:02:43.272Z,6.27
2023-02-19T11:05:19.954Z,5.27
2023-02-19T11:07:53.561Z,6.17
2023-02-19T11:10:27.309Z,6.13
2023-02-19T11:12:57.564Z,7.07
2023-02-19T11:15:29.882Z,7.00
2023-02-19T11:18:04.406Z,5.63
2023-02-19T11:20:33.200Z,5.87
2023-02-19T11:23:12.186Z,6.47
2023-02-19T11:25:46.732Z,5.90
2023-02-19T11:28:31.096Z,5.73
2023-02-19T11:31:16.993Z,6.10
2023-02-19T11:33:48.924Z,6.13
2023-02-19T11:36:30.038Z,6.03
2023-02-19T11:39:02.450Z,6.13
2023-02-19T11:41:54.755Z,6.83
2023-02-19T11:44:34.151Z,5.47
2023-02-19T11:47:18.347Z,6.03
2023-02-19T11:49:55.873Z,5.97
2023-02-19T11:52:35.864Z,6.40
2023-02-19T11:55:14.761Z,6.17
2023-02-19T11:57:45.142Z,6.20
2023-02-19T12:00:25.059Z,7.53
2023-02-19T12:03:12.753Z,6.30
2023-02-19T12:05:51.000Z,6.57
2023-02-19T12:08:37.592Z,6.40
2023-02-19T12:11:21.261Z,17.13
2023-02-19T12:14:04.979Z,6.30
2023-02-19T12:16:39.603Z,6.23
2023-02-19T12:19:29.626Z,6.50
2023-02-19T12:22:15.481Z,6.23
2023-02-19T12:25:08.406Z,6.03
2023-02-19T12:27:49.579Z,6.70
2023-02-19T12:30:33.653Z,6.53
2023-02-19T12:33:36.652Z,6.90
2023-02-19T12:36:15.787Z,8.03
2023-02-19T12:38:45.846Z,8.23
2023-02-19T12:41:25.655Z,7.43
2023-02-19T12:44:00.002Z,7.60
2023-02-19T12:46:33.505Z,7.00
2023-02-19T12:49:08.433Z,6.97
2023-02-19T12:51:42.241Z,7.30
2023-02-19T12:54:15.769Z,6.57
2023-02-19T12:56:48.166Z,8.67
2023-02-19T12:59:23.715Z,6.47
2023-02-19T13:01:58.009Z,6.13
2023-02-19T13:04:35.354Z,6.77
2023-02-19T13:07:08.221Z,7.17
2023-02-19T13:09:40.305Z,10.47
2023-02-19T13:12:13.439Z,7.13
2023-02-19T13:14:46.158Z,6.50
2023-02-19T13:17:24.961Z,6.23
2023-02-19T13:19:58.049Z,5.90
2023-02-19T13:22:50.420Z,6.17
2023-02-19T13:25:20.337Z,5.90
2023-02-19T13:28:27.010Z,6.47
2023-02-19T13:31:13.239Z,5.63
2023-02-19T13:33:54.473Z,6.40
2023-02-19T13:36:26.495Z,6.60
2023-02-19T13:38:57.250Z,6.70
2023-02-19T13:41:30.665Z,6.23
2023-02-19T13:44:03.000Z,6.97
2023-02-19T13:46:41.874Z,7.33
2023-02-19T13:49:43.408Z,6.30
2023-02-19T13:52:40.512Z,6.10
2023-02-19T13:55:49.709Z,5.90
2023-02-19T13:58:53.089Z,5.70
2023-02-19T14:01:41.853Z,4.83
2023-02-19T14:04:20.752Z,5.60
2023-02-19T14:07:23.253Z,5.50
2023-02-19T14:09:51.631Z,4.90
2023-02-19T14:12:20.908Z,5.67
2023-02-19T14:14:49.692Z,5.20
2023-02-19T14:17:29.290Z,5.77
2023-02-19T14:20:00.798Z,5.53
2023-02-19T14:22:47.675Z,5.40
2023-02-19T14:25:30.239Z,6.17
2023-02-19T14:28:03.384Z,5.40
2023-02-19T14:30:33.342Z,5.77
2023-02-19T14:33:11.741Z,6.97
2023-02-19T14:35:44.811Z,6.30
2023-02-19T14:38:19.176Z,7.17
2023-02-19T14:40:49.207Z,7.00
2023-02-19T14:43:20.015Z,6.50
2023-02-19T14:45:52.587Z,6.30
2023-02-19T14:48:24.061Z,6.83
2023-02-19T14:50:58.208Z,5.80
2023-02-19T14:53:27.587Z,7.23
2023-02-19T14:55:56.521Z,6.23
2023-02-19T14:58:28.891Z,9.87
2023-02-19T15:00:57.392Z,7.40
2023-02-19T15:03:34.263Z,7.10
2023-02-19T15:06:06.999Z,5.60
2023-02-19T15:08:40.301Z,6.20
2023-02-19T15:11:12.599Z,6.27
2023-02-19T15:13:45.612Z,6.30
2023-02-19T15:16:19.240Z,6.37
2023-02-19T15:18:48.149Z,8.23
2023-02-19T15:21:25.642Z,7.43
2023-02-19T15:23:56.452Z,8.10
2023-02-19T15:26:32.887Z,7.73
2023-02-19T15:29:02.906Z,6.90
2023-02-19T15:31:31.451Z,6.87
2023-02-19T15:33:59.980Z,7.60
2023-02-19T15:36:32.102Z,5.97
2023-02-19T15:39:03.226Z,6.17
2023-02-19T15:41:35.753Z,6.07
2023-02-19T15:44:17.049Z,6.47
2023-02-19T15:46:46.823Z,5.37
2023-02-19T15:49:19.770Z,7.50
2023-02-19T15:51:54.326Z,6.73
2023-02-19T15:54:28.541Z,6.23
2023-02-19T15:57:00.572Z,6.53
2023-02-19T15:59:33.515Z,5.73
2023-02-19T16:02:03.848Z,6.07
2023-02-19T16:04:32.305Z,6.70
2023-02-19T16:07:03.856Z,6.90
2023-02-19T16:09:38.955Z,6.80
2023-02-19T16:12:22.032Z,6.83
2023-02-19T16:14:51.108Z,6.67
2023-02-19T16:17:23.065Z,6.57
2023-02-19T16:19:56.802Z,6.33
2023-02-19T16:22:28.846Z,6.87
2023-02-19T16:24:59.533Z,6.57
2023-02-19T16:27:32.982Z,7.20
2023-02-19T16:30:08.291Z,9.10
2023-02-19T16:32:36.798Z,7.27
2023-02-19T16:35:05.186Z,6.97
2023-02-19T16:37:37.103Z,8.20
2023-02-19T16:40:44.780Z,7.50
2023-02-19T16:43:29.258Z,7.90
2023-02-19T16:45:57.858Z,7.13
2023-02-19T16:48:26.418Z,8.20
2023-02-19T16:50:54.615Z,7.37
2023-02-19T16:53:25.831Z,8.20
2023-02-19T16:55:54.336Z,8.30
2023-02-19T16:58:22.692Z,9.17
2023-02-19T17:00:51.279Z,7.77
2023-02-19T17:03:22.371Z,8.33
2023-02-19T17:06:02.639Z,7.90
2023-02-19T17:08:35.411Z,8.60
2023-02-19T17:11:04.514Z,10.00
2023-02-19T17:13:33.443Z,8.03
2023-02-19T17:16:02.160Z,9.70
2023-02-19T17:18:30.812Z,8.83
2023-02-19T17:21:06.392Z,9.37
2023-02-19T17:23:35.904Z,9.53
2023-02-19T17:26:04.389Z,8.70
2023-02-19T17:28:32.989Z,8.50
2023-02-19T17:31:01.463Z,8.33
2023-02-19T17:33:30.464Z,8.40
2023-02-19T17:35:58.904Z,9.77
2023-02-19T17:38:28.506Z,10.07
2023-02-19T17:40:58.111Z,9.30
2023-02-19T17:43:26.533Z,8.83
2023-02-19T17:45:55.205Z,8.47
2023-02-19T17:48:23.631Z,9.20
2023-02-19T17:50:52.352Z,9.97
2023-02-19T17:53:20.769Z,8.80
2023-02-19T17:55:49.301Z,12.57
2023-02-19T17:58:18.857Z,9.07
2023-02-19T18:00:47.432Z,9.77
2023-02-19T18:03:16.291Z,9.07
2023-02-19T18:05:44.700Z,10.30
2023-02-19T18:08:13.224Z,11.80
2023-02-19T18:10:41.809Z,10.17
2023-02-19T18:13:10.567Z,9.80
2023-02-19T18:15:40.034Z,12.90
2023-02-19T18:18:10.074Z,12.13
2023-02-19T18:20:38.426Z,10.63
2023-02-19T18:23:06.862Z,8.10
2023-02-19T18:25:35.269Z,8.50
2023-02-19T18:28:03.740Z,9.87
2023-02-19T18:30:32.228Z,13.30
2023-02-19T18:33:02.504Z,10.37
2023-02-19T18:35:30.891Z,11.13
2023-02-19T18:37:59.501Z,11.23
2023-02-19T18:40:28.792Z,10.43
2023-02-19T18:42:57.237Z,12.03
2023-02-19T18:45:25.741Z,10.00
2023-02-19T18:47:54.282Z,13.40
2023-02-19T18:50:23.931Z,14.57
2023-02-19T18:52:53.174Z,10.73
2023-02-19T18:55:21.592Z,13.87
2023-02-19T18:57:50.125Z,12.30
2023-02-19T19:00:20.442Z,13.60
2023-02-19T19:02:50.844Z,12.17
2023-02-19T19:05:23.217Z,9.90
2023-02-19T19:07:54.277Z,9.77
2023-02-19T19:10:23.238Z,18.47
2023-02-19T19:12:51.819Z,9.83
2023-02-19T19:15:20.693Z,8.23
2023-02-19T19:17:49.720Z,8.97
2023-02-19T19:20:19.533Z,7.57
2023-02-19T19:22:50.197Z,6.97
2023-02-19T19:25:20.241Z,7.70
2023-02-19T19:27:50.545Z,7.57
2023-02-19T19:30:20.053Z,7.77
2023-02-19T19:32:49.490Z,6.30
2023-02-19T19:35:18.113Z,6.37
2023-02-19T19:37:46.847Z,6.50
2023-02-19T19:40:15.767Z,6.80
2023-02-19T19:42:45.547Z,8.47
2023-02-19T19:45:14.152Z,7.37
2023-02-19T19:47:42.557Z,6.90
2023-02-19T19:50:12.130Z,12.73
2023-02-19T19:52:40.496Z,8.73
2023-02-19T19:55:09.564Z,7.87
2023-02-19T19:57:40.626Z,8.27
2023-02-19T20:00:11.480Z,9.17
2023-02-19T20:02:39.905Z,13.03
2023-02-19T20:05:08.477Z,8.47
2023-02-19T20:07:36.966Z,8.70
2023-02-19T20:10:05.553Z,9.37
2023-02-19T20:12:34.010Z,7.83
2023-02-19T20:15:02.323Z,8.00
2023-02-19T20:17:32.044Z,7.77
2023-02-19T20:20:00.575Z,7.73
2023-02-19T20:22:28.992Z,6.60
2023-02-19T20:24:57.576Z,7.30
2023-02-19T20:27:26.023Z,7.20
2023-02-19T20:29:54.435Z,8.03
2023-02-19T20:32:22.954Z,8.20
2023-02-19T20:34:52.756Z,7.70
2023-02-19T20:37:21.196Z,7.33
2023-02-19T20:39:49.600Z,8.13
2023-02-19T20:42:17.904Z,7.70
2023-02-19T20:44:46.456Z,9.37
2023-02-19T20:47:14.887Z,11.73
2023-02-19T20:49:45.943Z,8.13
2023-02-19T20:52:17.737Z,7.63
2023-02-19T20:54:46.151Z,7.90
2023-02-19T20:57:15.510Z,9.43
2023-02-19T20:59:44.320Z,8.07
2023-02-19T21:02:16.505Z,8.27
2023-02-19T21:04:44.859Z,10.37
2023-02-19T21:07:13.393Z,12.40
2023-02-19T21:09:43.285Z,7.87
2023-02-19T21:12:12.060Z,13.13
2023-02-19T21:14:40.634Z,10.40
2023-02-19T21:17:09.139Z,11.13
2023-02-19T21:19:37.531Z,10.57
2023-02-19T21:22:05.887Z,12.53
2023-02-19T21:24:34.232Z,11.87
2023-02-19T21:27:03.682Z,16.10
2023-02-19T21:29:32.104Z,16.73
2023-02-19T21:32:01.182Z,13.07
2023-02-19T21:34:30.570Z,13.33
2023-02-19T21:36:59.912Z,14.93
2023-02-19T21:39:28.616Z,20.60
2023-02-19T21:41:58.686Z,18.10
2023-02-19T21:44:28.495Z,17.87
2023-02-19T21:46:56.939Z,16.07
2023-02-19T21:49:25.369Z,18.40
2023-02-19T21:51:53.703Z,18.90
2023-02-19T21:54:24.710Z,19.83
2023-02-19T21:56:53.794Z,17.87
2023-02-19T21:59:22.174Z,16.30
2023-02-19T22:01:51.942Z,14.00
2023-02-19T22:04:21.803Z,17.10
2023-02-19T22:06:50.607Z,14.80
2023-02-19T22:09:19.122Z,15.13
2023-02-19T22:11:47.650Z,14.13
2023-02-19T22:14:16.331Z,18.53
2023-02-19T22:16:44.735Z,15.57
2023-02-19T22:19:15.141Z,19.53
2023-02-19T22:21:44.237Z,14.07
2023-02-19T22:24:16.133Z,15.90
2023-02-19T22:26:44.951Z,13.80
2023-02-19T22:29:14.461Z,16.80
2023-02-19T22:31:42.903Z,15.53
2023-02-19T22:34:11.629Z,14.73
2023-02-19T22:36:41.400Z,13.97
2023-02-19T22:39:10.587Z,15.47
2023-02-19T22:41:43.355Z,14.60
2023-02-19T22:44:12.176Z,15.50
2023-02-19T22:46:40.722Z,17.67
2023-02-19T22:49:09.207Z,14.20
2023-02-19T22:51:37.778Z,21.07
2023-02-19T22:54:07.638Z,14.53
2023-02-19T22:56:36.004Z,15.33
2023-02-19T22:59:04.308Z,14.87
2023-02-19T23:01:32.878Z,16.73
2023-02-19T23:04:01.571Z,27.00
2023-02-19T23:06:30.800Z,15.23
2023-02-19T23:09:00.840Z,16.10
2023-02-19T23:11:31.825Z,15.23
2023-02-19T23:14:00.452Z,15.80
2023-02-19T23:16:29.259Z,19.07
2023-02-19T23:18:57.666Z,16.23
2023-02-19T23:21:26.159Z,17.30
2023-02-19T23:23:54.666Z,16.70
2023-02-19T23:26:23.109Z,20.73
2023-02-19T23:28:53.105Z,16.30
2023-02-19T23:31:21.641Z,19.67
2023-02-19T23:33:50.156Z,20.47
2023-02-19T23:36:18.574Z,17.10
2023-02-19T23:38:47.833Z,18.23
2023-02-19T23:41:16.871Z,18.20
2023-02-19T23:43:45.534Z,21.70
2023-02-19T23:46:17.650Z,19.47
2023-02-19T23:48:46.549Z,22.13
2023-02-19T23:51:15.024Z,21.00
2023-02-19T23:53:43.406Z,25.20
2023-02-19T23:56:12.052Z,24.40
2023-02-19T23:58:40.788Z,27.43
